createdAt,value
2023-04-11T00:00:59.679Z,100969.44
2023-04-11T00:03:26.862Z,100967.66
2023-04-11T00:05:53.068Z,100965.84
2023-04-11T00:08:19.418Z,100960.41
2023-04-11T00:10:45.900Z,100960.28
2023-04-11T00:13:12.333Z,100949.81
2023-04-11T00:15:38.623Z,100954.16
2023-04-11T00:18:05.982Z,100948.94
2023-04-11T00:20:32.018Z,100959.44
2023-04-11T00:22:58.576Z,100944.63
2023-04-11T00:25:24.831Z,100938.13
2023-04-11T00:27:51.147Z,100936.34
2023-04-11T00:30:17.283Z,100927.47
2023-04-11T00:32:45.908Z,100931.75
2023-04-11T00:35:12.081Z,100928.00
2023-04-11T00:37:43.353Z,100924.22
2023-04-11T00:40:11.567Z,100918.84
2023-04-11T00:42:38.654Z,100921.44
2023-04-11T00:45:05.657Z,100915.66
2023-04-11T00:47:33.505Z,100920.09
2023-04-11T00:49:59.953Z,100916.34
2023-04-11T00:52:26.893Z,100911.66
2023-04-11T00:54:53.083Z,100900.25
2023-04-11T00:57:20.584Z,100890.25
2023-04-11T00:59:47.644Z,100880.31
2023-04-11T01:02:14.009Z,100883.66
2023-04-11T01:04:40.117Z,100875.97
2023-04-11T01:07:09.778Z,100864.84
2023-04-11T01:09:36.150Z,100866.69
2023-04-11T01:12:03.991Z,100862.41
2023-04-11T01:14:30.375Z,100864.63
2023-04-11T01:17:00.985Z,100863.13
2023-04-11T01:19:27.751Z,100855.44
2023-04-11T01:21:56.102Z,100857.53
2023-04-11T01:24:22.973Z,100856.53
2023-04-11T01:26:49.737Z,100848.13
2023-04-11T01:29:16.188Z,100829.25
2023-04-11T01:31:43.008Z,100829.72
2023-04-11T01:34:12.611Z,100828.13
2023-04-11T01:36:40.898Z,100826.94
2023-04-11T01:39:07.367Z,100825.75
2023-04-11T01:41:35.008Z,100819.31
2023-04-11T01:44:04.984Z,100815.09
2023-04-11T01:46:31.782Z,100810.81
2023-04-11T01:49:00.477Z,100800.56
2023-04-11T01:51:26.998Z,100801.28
2023-04-11T01:53:53.073Z,100800.41
2023-04-11T01:56:19.604Z,100797.72
2023-04-11T01:58:46.090Z,100813.44
2023-04-11T02:01:12.594Z,100803.66
2023-04-11T02:03:39.126Z,100796.78
2023-04-11T02:06:05.752Z,100790.84
2023-04-11T02:08:31.828Z,100790.72
2023-04-11T02:10:58.216Z,100790.44
2023-04-11T02:13:24.311Z,100794.44
2023-04-11T02:15:50.959Z,100784.69
2023-04-11T02:18:17.491Z,100775.75
2023-04-11T02:20:43.818Z,100776.47
2023-04-11T02:23:10.316Z,100773.63
2023-04-11T02:25:38.209Z,100764.00
2023-04-11T02:28:06.779Z,100763.28
2023-04-11T02:30:34.378Z,100768.09
2023-04-11T02:33:00.930Z,100758.28
2023-04-11T02:35:27.313Z,100756.00
2023-04-11T02:37:53.412Z,100747.34
2023-04-11T02:40:19.882Z,100738.38
2023-04-11T02:42:46.023Z,100743.06
2023-04-11T02:45:12.454Z,100735.69
2023-04-11T02:47:39.004Z,100733.09
2023-04-11T02:50:07.663Z,100724.31
2023-04-11T02:52:41.470Z,100723.75
2023-04-11T02:55:10.202Z,100716.78
2023-04-11T02:57:36.460Z,100708.69
2023-04-11T03:00:06.510Z,100709.28
2023-04-11T03:02:42.626Z,100701.59
2023-04-11T03:05:10.107Z,100691.66
2023-04-11T03:07:39.784Z,100686.81
2023-04-11T03:10:08.396Z,100685.25
2023-04-11T03:12:34.641Z,100688.81
2023-04-11T03:15:04.242Z,100683.69
2023-04-11T03:17:30.385Z,100678.72
2023-04-11T03:19:56.780Z,100673.88
2023-04-11T03:22:23.786Z,100664.50
2023-04-11T03:24:50.394Z,100667.06
2023-04-11T03:27:19.598Z,100664.94
2023-04-11T03:29:48.611Z,100662.09
2023-04-11T03:32:24.278Z,100657.81
2023-04-11T03:34:50.641Z,100652.41
2023-04-11T03:37:16.816Z,100652.41
2023-04-11T03:39:43.231Z,100642.16
2023-04-11T03:42:09.288Z,100635.91
2023-04-11T03:44:35.892Z,100627.09
2023-04-11T03:47:02.439Z,100624.56
2023-04-11T03:49:36.218Z,100616.84
2023-04-11T03:52:04.861Z,100610.31
2023-04-11T03:54:31.841Z,100612.84
2023-04-11T03:56:58.668Z,100614.41
2023-04-11T03:59:26.095Z,100606.59
2023-04-11T04:01:58.395Z,100611.44
2023-04-11T04:04:25.084Z,100604.16
2023-04-11T04:07:03.522Z,100612.53
2023-04-11T04:09:36.481Z,100605.38
2023-04-11T04:12:03.682Z,100602.25
2023-04-11T04:14:43.471Z,100588.59
2023-04-11T04:17:10.511Z,100595.41
2023-04-11T04:19:37.233Z,100589.75
2023-04-11T04:22:03.380Z,100593.16
2023-04-11T04:24:37.937Z,100594.31
2023-04-11T04:27:17.292Z,100590.31
2023-04-11T04:29:46.558Z,100588.31
2023-04-11T04:32:21.992Z,100583.75
2023-04-11T04:34:54.635Z,100573.94
2023-04-11T04:37:32.327Z,100564.78
2023-04-11T04:40:15.205Z,100549.97
2023-04-11T04:42:57.365Z,100551.69
2023-04-11T04:45:31.833Z,100556.75
2023-04-11T04:47:59.387Z,100553.31
2023-04-11T04:50:26.400Z,100544.44
2023-04-11T04:52:53.162Z,100537.88
2023-04-11T04:55:19.821Z,100535.41
2023-04-11T04:57:46.824Z,100526.53
2023-04-11T05:00:14.554Z,100533.91
2023-04-11T05:02:44.147Z,100525.34
2023-04-11T05:05:13.358Z,100520.47
2023-04-11T05:07:40.191Z,100511.38
2023-04-11T05:10:07.118Z,100512.22
2023-04-11T05:12:36.180Z,100500.00
2023-04-11T05:15:11.018Z,100493.09
2023-04-11T05:17:38.730Z,100492.25
2023-04-11T05:20:08.317Z,100486.53
2023-04-11T05:22:37.337Z,100492.56
2023-04-11T05:25:05.046Z,100504.31
2023-04-11T05:27:31.565Z,100494.50
2023-04-11T05:29:58.773Z,100488.78
2023-04-11T05:32:24.966Z,100481.13
2023-04-11T05:34:58.801Z,100482.66
2023-04-11T05:37:46.358Z,100461.91
2023-04-11T05:40:13.053Z,100463.28
2023-04-11T05:42:39.329Z,100463.44
2023-04-11T05:45:06.477Z,100447.50
2023-04-11T05:47:33.112Z,100443.84
2023-04-11T05:49:59.718Z,100445.06
2023-04-11T05:52:25.758Z,100456.44
2023-04-11T05:54:52.161Z,100461.44
2023-04-11T05:57:18.303Z,100463.34
2023-04-11T05:59:48.921Z,100452.03
2023-04-11T06:02:15.992Z,100451.25
2023-04-11T06:04:42.975Z,100468.34
2023-04-11T06:07:09.463Z,100448.25
2023-04-11T06:09:35.938Z,100444.53
2023-04-11T06:12:02.821Z,100437.66
2023-04-11T06:14:29.184Z,100442.91
2023-04-11T06:16:55.601Z,100435.66
2023-04-11T06:19:21.977Z,100439.22
2023-04-11T06:21:48.394Z,100435.69
2023-04-11T06:24:17.735Z,100428.44
2023-04-11T06:26:44.167Z,100436.09
2023-04-11T06:29:10.704Z,100428.66
2023-04-11T06:31:37.432Z,100430.88
2023-04-11T06:34:04.457Z,100425.97
2023-04-11T06:36:30.817Z,100417.31
2023-04-11T06:38:57.256Z,100413.44
2023-04-11T06:41:23.614Z,100422.78
2023-04-11T06:43:49.989Z,100420.41
2023-04-11T06:46:16.212Z,100411.25
2023-04-11T06:48:43.094Z,100415.00
2023-04-11T06:51:09.988Z,100416.00
2023-04-11T06:53:37.173Z,100401.75
2023-04-11T06:56:03.844Z,100404.81
2023-04-11T06:58:30.388Z,100399.41
2023-04-11T07:00:56.505Z,100391.59
2023-04-11T07:03:24.541Z,100392.59
2023-04-11T07:05:51.165Z,100384.47
2023-04-11T07:08:17.719Z,100384.81
2023-04-11T07:10:44.056Z,100382.25
2023-04-11T07:13:10.672Z,100376.28
2023-04-11T07:15:36.969Z,100371.00
2023-04-11T07:18:03.545Z,100368.78
2023-04-11T07:20:32.144Z,100365.53
2023-04-11T07:22:58.609Z,100355.38
2023-04-11T07:25:32.705Z,100356.53
2023-04-11T07:27:59.940Z,100345.25
2023-04-11T07:30:28.839Z,100347.78
2023-04-11T07:32:55.606Z,100351.50
2023-04-11T07:35:21.872Z,100344.41
2023-04-11T07:37:48.238Z,100351.88
2023-04-11T07:40:14.765Z,100338.06
2023-04-11T07:42:41.527Z,100339.25
2023-04-11T07:45:07.906Z,100335.28
2023-04-11T07:47:34.967Z,100329.16
2023-04-11T07:50:01.384Z,100336.34
2023-04-11T07:52:27.996Z,100340.66
2023-04-11T07:54:54.101Z,100338.25
2023-04-11T07:57:20.773Z,100334.97
2023-04-11T07:59:46.902Z,100338.81
2023-04-11T08:02:13.493Z,100330.72
2023-04-11T08:04:40.088Z,100330.44
2023-04-11T08:07:06.619Z,100323.78
2023-04-11T08:09:33.623Z,100320.34
2023-04-11T08:12:00.920Z,100324.19
2023-04-11T08:14:27.481Z,100320.09
2023-04-11T08:16:53.934Z,100313.72
2023-04-11T08:19:20.489Z,100317.47
2023-04-11T08:21:46.918Z,100316.03
2023-04-11T08:24:12.992Z,100314.16
2023-04-11T08:26:39.405Z,100310.34
2023-04-11T08:29:10.240Z,100315.38
2023-04-11T08:31:36.971Z,100301.81
2023-04-11T08:34:06.212Z,100307.78
2023-04-11T08:36:33.730Z,100299.31
2023-04-11T08:39:00.229Z,100301.88
2023-04-11T08:41:30.068Z,100310.13
2023-04-11T08:43:57.445Z,100310.25
2023-04-11T08:46:24.364Z,100303.84
2023-04-11T08:48:50.655Z,100297.75
2023-04-11T08:51:21.806Z,100302.94
2023-04-11T08:53:51.454Z,100293.16
2023-04-11T08:56:17.853Z,100299.44
2023-04-11T08:58:44.077Z,100306.47
2023-04-11T09:01:31.349Z,100293.69
2023-04-11T09:03:59.216Z,100303.28
2023-04-11T09:06:29.964Z,100298.41
2023-04-11T09:09:00.613Z,100295.19
2023-04-11T09:11:27.195Z,100291.72
2023-04-11T09:14:06.353Z,100288.03
2023-04-11T09:16:33.392Z,100278.25
2023-04-11T09:18:59.677Z,100279.25
2023-04-11T09:21:28.639Z,100280.94
2023-04-11T09:24:13.768Z,100279.59
2023-04-11T09:26:40.218Z,100272.78
2023-04-11T09:29:06.390Z,100274.97
2023-04-11T09:31:44.065Z,100270.13
2023-04-11T09:34:22.876Z,100263.44
2023-04-11T09:36:54.224Z,100267.41
2023-04-11T09:39:20.719Z,100266.44
2023-04-11T09:41:47.365Z,100262.59
2023-04-11T09:44:13.662Z,100254.66
2023-04-11T09:46:58.945Z,100251.75
2023-04-11T09:49:25.457Z,100251.34
2023-04-11T09:51:52.340Z,100245.28
2023-04-11T09:54:24.026Z,100242.22
2023-04-11T09:56:50.516Z,100248.38
2023-04-11T09:59:17.046Z,100230.28
2023-04-11T10:01:43.538Z,100243.25
2023-04-11T10:04:13.053Z,100233.16
2023-04-11T10:06:58.946Z,100238.88
2023-04-11T10:09:26.734Z,100240.00
2023-04-11T10:11:53.247Z,100240.34
2023-04-11T10:14:37.798Z,100237.63
2023-04-11T10:17:31.086Z,100237.53
2023-04-11T10:19:57.387Z,100233.34
2023-04-11T10:22:42.462Z,100238.41
2023-04-11T10:25:19.619Z,100232.56
2023-04-11T10:27:49.840Z,100229.06
2023-04-11T10:30:16.132Z,100232.59
2023-04-11T10:33:08.961Z,100227.94
2023-04-11T10:35:35.712Z,100236.63
2023-04-11T10:38:02.120Z,100225.63
2023-04-11T10:40:28.377Z,100225.03
2023-04-11T10:42:56.662Z,100222.03
2023-04-11T10:45:29.598Z,100236.13
2023-04-11T10:47:56.173Z,100229.63
2023-04-11T10:50:28.100Z,100228.25
2023-04-11T10:53:04.162Z,100225.28
2023-04-11T10:55:41.596Z,100225.06
2023-04-11T10:58:21.457Z,100229.28
2023-04-11T11:00:56.726Z,100227.94
2023-04-11T11:03:23.526Z,100241.09
2023-04-11T11:06:02.944Z,100237.44
2023-04-11T11:08:34.812Z,100239.13
2023-04-11T11:11:03.225Z,100241.03
2023-04-11T11:13:42.850Z,100247.66
2023-04-11T11:16:13.718Z,100238.66
2023-04-11T11:18:41.250Z,100244.56
2023-04-11T11:21:11.235Z,100243.78
2023-04-11T11:23:55.976Z,100256.41
2023-04-11T11:26:33.747Z,100250.53
2023-04-11T11:29:01.402Z,100259.38
2023-04-11T11:31:47.162Z,100257.84
2023-04-11T11:34:26.757Z,100249.53
2023-04-11T11:36:53.426Z,100243.09
2023-04-11T11:39:22.028Z,100243.41
2023-04-11T11:41:50.433Z,100242.22
2023-04-11T11:44:27.684Z,100242.72
2023-04-11T11:47:08.486Z,100247.16
2023-04-11T11:49:52.104Z,100258.78
2023-04-11T11:52:41.253Z,100253.31
2023-04-11T11:55:27.731Z,100242.72
2023-04-11T11:57:58.080Z,100245.97
2023-04-11T12:00:26.437Z,100251.41
2023-04-11T12:02:54.340Z,100253.59
2023-04-11T12:05:23.915Z,100252.25
2023-04-11T12:07:54.321Z,100253.63
2023-04-11T12:10:20.928Z,100254.81
2023-04-11T12:12:53.105Z,100265.00
2023-04-11T12:15:23.478Z,100267.03
2023-04-11T12:17:51.272Z,100260.94
2023-04-11T12:20:27.352Z,100267.72
2023-04-11T12:22:55.131Z,100273.44
2023-04-11T12:25:22.705Z,100272.97
2023-04-11T12:27:48.873Z,100274.66
2023-04-11T12:30:15.431Z,100273.81
2023-04-11T12:32:42.705Z,100280.91
2023-04-11T12:35:10.858Z,100279.06
2023-04-11T12:37:37.904Z,100278.88
2023-04-11T12:40:11.766Z,100266.31
2023-04-11T12:42:56.308Z,100290.03
2023-04-11T12:45:24.419Z,100278.13
2023-04-11T12:47:51.093Z,100280.22
2023-04-11T12:50:17.578Z,100280.03
2023-04-11T12:52:43.770Z,100283.59
2023-04-11T12:55:10.337Z,100287.31
2023-04-11T12:57:36.660Z,100271.72
2023-04-11T13:00:07.242Z,100275.63
2023-04-11T13:02:42.300Z,100269.72
2023-04-11T13:05:14.837Z,100274.09
2023-04-11T13:07:42.004Z,100269.03
2023-04-11T13:10:08.858Z,100263.72
2023-04-11T13:12:40.390Z,100268.00
2023-04-11T13:15:08.688Z,100273.06
2023-04-11T13:17:34.899Z,100270.38
2023-04-11T13:20:01.693Z,100270.38
2023-04-11T13:22:27.911Z,100272.41
2023-04-11T13:24:54.445Z,100277.66
2023-04-11T13:27:21.349Z,100287.47
2023-04-11T13:29:47.784Z,100283.94
2023-04-11T13:32:13.918Z,100289.22
2023-04-11T13:34:40.468Z,100289.03
2023-04-11T13:37:06.624Z,100292.59
2023-04-11T13:39:33.317Z,100300.41
2023-04-11T13:41:59.820Z,100295.81
2023-04-11T13:44:26.657Z,100302.59
2023-04-11T13:46:52.873Z,100302.59
2023-04-11T13:49:19.490Z,100308.88
2023-04-11T13:51:45.950Z,100301.41
2023-04-11T13:54:12.422Z,100303.44
2023-04-11T13:56:38.711Z,100293.44
2023-04-11T13:59:05.571Z,100308.72
2023-04-11T14:01:32.033Z,100308.72
2023-04-11T14:03:59.793Z,100307.19
2023-04-11T14:06:26.853Z,100306.22
2023-04-11T14:08:53.511Z,100309.78
2023-04-11T14:11:20.409Z,100312.13
2023-04-11T14:13:48.257Z,100310.78
2023-04-11T14:16:14.645Z,100307.56
2023-04-11T14:18:41.788Z,100306.38
2023-04-11T14:21:08.215Z,100309.44
2023-04-11T14:23:36.234Z,100309.28
2023-04-11T14:26:02.787Z,100308.41
2023-04-11T14:28:29.546Z,100313.16
2023-04-11T14:30:56.425Z,100318.94
2023-04-11T14:33:23.032Z,100317.59
2023-04-11T14:35:50.445Z,100313.16
2023-04-11T14:38:17.185Z,100308.41
2023-04-11T14:40:43.854Z,100316.75
2023-04-11T14:43:10.838Z,100321.16
2023-04-11T14:45:37.253Z,100318.94
2023-04-11T14:48:04.115Z,100317.41
2023-04-11T14:50:30.598Z,100321.81
2023-04-11T14:53:00.037Z,100312.13
2023-04-11T14:55:26.297Z,100325.00
2023-04-11T14:57:54.561Z,100324.47
2023-04-11T15:00:21.790Z,100320.22
2023-04-11T15:02:51.579Z,100318.53
2023-04-11T15:05:20.362Z,100313.63
2023-04-11T15:07:48.474Z,100319.91
2023-04-11T15:10:17.167Z,100324.16
2023-04-11T15:12:43.993Z,100321.28
2023-04-11T15:15:11.106Z,100313.00
2023-04-11T15:17:48.740Z,100319.44
2023-04-11T15:20:15.768Z,100321.84
2023-04-11T15:22:44.560Z,100322.50
2023-04-11T15:25:14.179Z,100322.69
2023-04-11T15:27:41.770Z,100329.47
2023-04-11T15:30:09.488Z,100326.75
2023-04-11T15:32:41.300Z,100314.16
2023-04-11T15:35:08.361Z,100301.44
2023-04-11T15:37:34.886Z,100290.56
2023-04-11T15:40:05.182Z,100278.00
2023-04-11T15:42:34.472Z,100265.63
2023-04-11T15:45:00.897Z,100265.97
2023-04-11T15:47:27.785Z,100256.13
2023-04-11T15:49:54.145Z,100258.16
2023-04-11T15:52:20.814Z,100270.38
2023-04-11T15:54:47.160Z,100267.84
2023-04-11T15:57:13.652Z,100271.28
2023-04-11T15:59:40.499Z,100271.78
2023-04-11T16:02:06.937Z,100266.88
2023-04-11T16:04:37.538Z,100269.41
2023-04-11T16:07:05.937Z,100280.56
2023-04-11T16:09:32.478Z,100285.19
2023-04-11T16:11:59.187Z,100282.63
2023-04-11T16:14:25.544Z,100283.09
2023-04-11T16:16:52.231Z,100294.50
2023-04-11T16:19:18.328Z,100299.09
2023-04-11T16:21:44.827Z,100291.09
2023-04-11T16:24:14.221Z,100292.09
2023-04-11T16:26:40.670Z,100295.31
2023-04-11T16:29:07.036Z,100293.09
2023-04-11T16:31:34.360Z,100292.91
2023-04-11T16:34:00.603Z,100294.97
2023-04-11T16:36:27.816Z,100297.16
2023-04-11T16:38:54.443Z,100301.06
2023-04-11T16:41:21.328Z,100304.25
2023-04-11T16:43:47.464Z,100304.91
2023-04-11T16:46:14.560Z,100311.00
2023-04-11T16:48:41.942Z,100311.69
2023-04-11T16:51:10.621Z,100320.63
2023-04-11T16:53:37.718Z,100319.75
2023-04-11T16:56:04.627Z,100314.78
2023-04-11T16:58:31.450Z,100323.72
2023-04-11T17:00:59.065Z,100327.78
2023-04-11T17:03:25.855Z,100334.16
2023-04-11T17:05:52.568Z,100333.91
2023-04-11T17:08:20.079Z,100337.78
2023-04-11T17:10:46.796Z,100336.34
2023-04-11T17:13:13.973Z,100338.41
2023-04-11T17:15:40.805Z,100348.84
2023-04-11T17:18:07.213Z,100356.22
2023-04-11T17:20:33.812Z,100360.63
2023-04-11T17:23:00.173Z,100368.50
2023-04-11T17:25:29.731Z,100357.59
2023-04-11T17:27:56.924Z,100360.84
2023-04-11T17:30:23.222Z,100366.19
2023-04-11T17:32:50.101Z,100364.31
2023-04-11T17:35:16.652Z,100363.31
2023-04-11T17:37:43.216Z,100356.91
2023-04-11T17:40:13.873Z,100363.63
2023-04-11T17:42:41.210Z,100366.09
2023-04-11T17:45:17.830Z,100357.69
2023-04-11T17:47:46.828Z,100367.78
2023-04-11T17:50:14.032Z,100370.22
2023-04-11T17:52:43.179Z,100377.53
2023-04-11T17:55:12.479Z,100372.66
2023-04-11T17:57:39.813Z,100384.59
2023-04-11T18:00:16.949Z,100390.88
2023-04-11T18:02:46.997Z,100399.41
2023-04-11T18:05:23.154Z,100400.22
2023-04-11T18:07:54.150Z,100406.59
2023-04-11T18:10:21.205Z,100392.47
2023-04-11T18:12:50.772Z,100402.34
2023-04-11T18:15:17.834Z,100396.41
2023-04-11T18:17:44.969Z,100384.72
2023-04-11T18:20:12.812Z,100387.81
2023-04-11T18:22:43.992Z,100386.44
2023-04-11T18:25:11.147Z,100394.56
2023-04-11T18:27:39.011Z,100397.63
2023-04-11T18:30:16.165Z,100394.53
2023-04-11T18:32:49.565Z,100396.47
2023-04-11T18:35:17.550Z,100396.56
2023-04-11T18:37:44.913Z,100402.81
2023-04-11T18:40:13.392Z,100397.31
2023-04-11T18:42:46.674Z,100404.44
2023-04-11T18:45:17.177Z,100415.69
2023-04-11T18:47:47.171Z,100418.16
2023-04-11T18:50:15.128Z,100420.16
2023-04-11T18:52:42.829Z,100420.38
2023-04-11T18:55:10.120Z,100431.44
2023-04-11T18:57:38.389Z,100434.34
2023-04-11T19:00:18.450Z,100437.50
2023-04-11T19:02:47.481Z,100437.09
2023-04-11T19:05:15.721Z,100431.63
2023-04-11T19:07:43.092Z,100440.44
2023-04-11T19:10:12.293Z,100433.88
2023-04-11T19:12:40.420Z,100434.06
2023-04-11T19:15:08.374Z,100428.66
2023-04-11T19:17:37.374Z,100436.63
2023-04-11T19:20:07.036Z,100444.44
2023-04-11T19:22:35.219Z,100445.72
2023-04-11T19:25:01.660Z,100442.63
2023-04-11T19:27:28.890Z,100444.28
2023-04-11T19:29:56.304Z,100443.59
2023-04-11T19:32:23.207Z,100442.72
2023-04-11T19:34:50.147Z,100445.59
2023-04-11T19:37:18.632Z,100441.63
2023-04-11T19:39:45.215Z,100434.38
2023-04-11T19:42:12.980Z,100437.06
2023-04-11T19:44:39.522Z,100431.81
2023-04-11T19:47:06.076Z,100447.31
2023-04-11T19:49:32.623Z,100437.25
2023-04-11T19:51:59.761Z,100442.94
2023-04-11T19:54:26.587Z,100442.66
2023-04-11T19:56:53.491Z,100448.22
2023-04-11T19:59:20.290Z,100439.09
2023-04-11T20:01:47.175Z,100444.25
2023-04-11T20:04:15.173Z,100443.38
2023-04-11T20:06:43.481Z,100438.88
2023-04-11T20:09:10.934Z,100441.72
2023-04-11T20:11:38.437Z,100435.16
2023-04-11T20:14:05.877Z,100439.56
2023-04-11T20:16:32.340Z,100445.97
2023-04-11T20:19:00.822Z,100437.88
2023-04-11T20:21:27.531Z,100446.56
2023-04-11T20:23:54.216Z,100438.88
2023-04-11T20:26:21.141Z,100447.97
2023-04-11T20:28:48.985Z,100454.22
2023-04-11T20:31:15.791Z,100451.38
2023-04-11T20:33:43.607Z,100451.97
2023-04-11T20:36:10.693Z,100459.19
2023-04-11T20:38:37.545Z,100457.38
2023-04-11T20:41:05.036Z,100458.78
2023-04-11T20:43:35.871Z,100458.34
2023-04-11T20:46:07.842Z,100469.16
2023-04-11T20:48:34.745Z,100466.16
2023-04-11T20:51:01.422Z,100471.28
2023-04-11T20:53:28.086Z,100479.81
2023-04-11T20:55:54.798Z,100483.78
2023-04-11T20:58:21.379Z,100478.38
2023-04-11T21:00:47.933Z,100483.22
2023-04-11T21:03:14.951Z,100480.97
2023-04-11T21:05:46.122Z,100483.69
2023-04-11T21:08:13.633Z,100482.41
2023-04-11T21:10:40.104Z,100484.97
2023-04-11T21:13:06.392Z,100490.94
2023-04-11T21:15:34.084Z,100494.34
2023-04-11T21:18:00.390Z,100500.59
2023-04-11T21:20:26.772Z,100496.34
2023-04-11T21:22:53.110Z,100501.59
2023-04-11T21:25:20.423Z,100491.34
2023-04-11T21:27:47.544Z,100496.31
2023-04-11T21:30:14.265Z,100491.19
2023-04-11T21:32:40.971Z,100488.63
2023-04-11T21:35:10.131Z,100500.00
2023-04-11T21:37:36.416Z,100491.47
2023-04-11T21:40:03.701Z,100495.88
2023-04-11T21:42:30.547Z,100488.78
2023-04-11T21:44:57.784Z,100491.19
2023-04-11T21:47:24.061Z,100496.31
2023-04-11T21:49:51.021Z,100494.31
2023-04-11T21:52:19.950Z,100499.16
2023-04-11T21:54:46.355Z,100500.41
2023-04-11T21:57:12.724Z,100498.41
2023-04-11T21:59:39.196Z,100495.00
2023-04-11T22:02:05.989Z,100490.59
2023-04-11T22:04:44.031Z,100490.75
2023-04-11T22:07:23.282Z,100497.88
2023-04-11T22:09:57.516Z,100497.72
2023-04-11T22:12:26.037Z,100498.16
2023-04-11T22:14:52.747Z,100493.19
2023-04-11T22:17:23.030Z,100488.22
2023-04-11T22:19:49.737Z,100493.50
2023-04-11T22:22:17.039Z,100501.88
2023-04-11T22:24:45.688Z,100495.34
2023-04-11T22:27:12.897Z,100493.22
2023-04-11T22:29:40.500Z,100504.88
2023-04-11T22:32:07.507Z,100500.31
2023-04-11T22:34:34.002Z,100502.47
2023-04-11T22:37:00.666Z,100499.75
2023-04-11T22:39:27.127Z,100498.91
2023-04-11T22:41:53.784Z,100493.66
2023-04-11T22:44:21.173Z,100499.91
2023-04-11T22:46:59.554Z,100505.88
2023-04-11T22:49:26.508Z,100506.88
2023-04-11T22:51:52.658Z,100502.31
2023-04-11T22:54:19.461Z,100501.03
2023-04-11T22:56:47.798Z,100505.44
2023-04-11T22:59:14.099Z,100507.84
2023-04-11T23:01:40.694Z,100500.19
2023-04-11T23:04:07.621Z,100498.63
2023-04-11T23:06:34.125Z,100498.75
2023-04-11T23:09:00.664Z,100496.34
2023-04-11T23:11:26.706Z,100495.34
2023-04-11T23:13:53.781Z,100490.94
2023-04-11T23:16:21.330Z,100494.63
2023-04-11T23:18:47.734Z,100498.59
2023-04-11T23:21:13.847Z,100487.38
2023-04-11T23:23:40.243Z,100491.63
2023-04-11T23:26:06.555Z,100494.31
2023-04-11T23:28:33.020Z,100487.94
2023-04-11T23:34:52.821Z,100485.78
2023-04-11T23:37:19.224Z,100482.75
2023-04-11T23:39:45.655Z,100479.19
2023-04-11T23:42:11.959Z,100477.78
2023-04-11T23:44:38.439Z,100477.34
2023-04-11T23:47:04.642Z,100474.91
2023-04-11T23:49:33.165Z,100479.97
2023-04-11T23:51:59.300Z,100469.28
2023-04-11T23:54:30.149Z,100468.88
2023-04-11T23:56:57.444Z,100470.56
2023-04-11T23:59:24.304Z,100468.16
